sensor_id;sensor_type;location;lat;lon;timestamp;temperature;humidity
22456;DHT22;11395;53.204;6.502;2022-10-19T00:07:33;23.10;68.60
22456;DHT22;11395;53.204;6.502;2022-10-19T00:09:59;23.00;69.50
22456;DHT22;11395;53.204;6.502;2022-10-19T00:12:25;22.90;69.70
22456;DHT22;11395;53.204;6.502;2022-10-19T00:14:51;22.90;69.70
22456;DHT22;11395;53.204;6.502;2022-10-19T00:17:18;22.90;69.60
22456;DHT22;11395;53.204;6.502;2022-10-19T00:19:44;22.90;69.60
22456;DHT22;11395;53.204;6.502;2022-10-19T00:22:10;22.90;69.50
22456;DHT22;11395;53.204;6.502;2022-10-19T00:24:36;23.00;69.50
22456;DHT22;11395;53.204;6.502;2022-10-19T00:27:03;23.00;69.40
22456;DHT22;11395;53.204;6.502;2022-10-19T00:29:30;22.90;69.40
22456;DHT22;11395;53.204;6.502;2022-10-19T00:31:56;22.90;69.30
22456;DHT22;11395;53.204;6.502;2022-10-19T00:34:23;22.90;69.30
22456;DHT22;11395;53.204;6.502;2022-10-19T00:36:49;22.90;69.20
22456;DHT22;11395;53.204;6.502;2022-10-19T00:39:17;22.90;69.40
22456;DHT22;11395;53.204;6.502;2022-10-19T00:41:45;22.90;69.40
22456;DHT22;11395;53.204;6.502;2022-10-19T00:46:40;22.90;69.40
22456;DHT22;11395;53.204;6.502;2022-10-19T00:51:36;22.80;69.20
22456;DHT22;11395;53.204;6.502;2022-10-19T00:54:05;22.80;69.30
22456;DHT22;11395;53.204;6.502;2022-10-19T00:56:33;22.80;69.30
22456;DHT22;11395;53.204;6.502;2022-10-19T00:59:02;22.80;69.30
22456;DHT22;11395;53.204;6.502;2022-10-19T01:07:31;22.70;69.00
22456;DHT22;11395;53.204;6.502;2022-10-19T01:09:59;22.60;69.90
22456;DHT22;11395;53.204;6.502;2022-10-19T01:12:50;22.60;70.10
22456;DHT22;11395;53.204;6.502;2022-10-19T01:18:08;22.60;70.20
22456;DHT22;11395;53.204;6.502;2022-10-19T01:36:42;22.60;69.80
22456;DHT22;11395;53.204;6.502;2022-10-19T01:47:52;22.60;69.80
22456;DHT22;11395;53.204;6.502;2022-10-19T01:50:23;22.60;69.80
22456;DHT22;11395;53.204;6.502;2022-10-19T01:52:52;22.60;69.70
22456;DHT22;11395;53.204;6.502;2022-10-19T01:55:20;22.60;69.70
22456;DHT22;11395;53.204;6.502;2022-10-19T01:57:53;22.50;69.70
22456;DHT22;11395;53.204;6.502;2022-10-19T02:00:22;22.50;69.70
22456;DHT22;11395;53.204;6.502;2022-10-19T02:02:51;22.50;69.70
22456;DHT22;11395;53.204;6.502;2022-10-19T02:05:20;22.50;69.80
22456;DHT22;11395;53.204;6.502;2022-10-19T02:07:50;22.50;69.80
22456;DHT22;11395;53.204;6.502;2022-10-19T02:10:18;22.50;69.90
22456;DHT22;11395;53.204;6.502;2022-10-19T02:12:46;22.50;69.90
22456;DHT22;11395;53.204;6.502;2022-10-19T02:15:17;22.50;69.90
22456;DHT22;11395;53.204;6.502;2022-10-19T02:17:47;22.50;69.90
22456;DHT22;11395;53.204;6.502;2022-10-19T02:20:14;22.50;69.90
22456;DHT22;11395;53.204;6.502;2022-10-19T02:22:41;22.40;69.90
22456;DHT22;11395;53.204;6.502;2022-10-19T02:25:08;22.40;69.90
22456;DHT22;11395;53.204;6.502;2022-10-19T02:27:34;22.40;69.90
22456;DHT22;11395;53.204;6.502;2022-10-19T02:30:02;22.40;69.90
22456;DHT22;11395;53.204;6.502;2022-10-19T02:32:28;22.40;69.80
22456;DHT22;11395;53.204;6.502;2022-10-19T02:34:54;22.40;69.90
22456;DHT22;11395;53.204;6.502;2022-10-19T02:37:22;22.40;69.90
22456;DHT22;11395;53.204;6.502;2022-10-19T02:39:49;22.40;69.90
22456;DHT22;11395;53.204;6.502;2022-10-19T02:42:27;22.40;69.90
22456;DHT22;11395;53.204;6.502;2022-10-19T02:45:01;22.40;69.90
22456;DHT22;11395;53.204;6.502;2022-10-19T02:47:37;22.40;69.80
22456;DHT22;11395;53.204;6.502;2022-10-19T02:50:07;22.40;69.80
22456;DHT22;11395;53.204;6.502;2022-10-19T02:52:36;22.30;69.70
22456;DHT22;11395;53.204;6.502;2022-10-19T02:55:03;22.30;69.80
22456;DHT22;11395;53.204;6.502;2022-10-19T02:57:29;22.30;69.90
22456;DHT22;11395;53.204;6.502;2022-10-19T02:59:57;22.30;69.90
22456;DHT22;11395;53.204;6.502;2022-10-19T03:02:24;22.30;70.60
22456;DHT22;11395;53.204;6.502;2022-10-19T03:04:50;22.30;69.90
22456;DHT22;11395;53.204;6.502;2022-10-19T03:07:18;22.30;69.90
22456;DHT22;11395;53.204;6.502;2022-10-19T03:09:45;22.30;69.90
22456;DHT22;11395;53.204;6.502;2022-10-19T03:12:12;22.30;69.90
22456;DHT22;11395;53.204;6.502;2022-10-19T03:14:39;22.30;69.90
22456;DHT22;11395;53.204;6.502;2022-10-19T03:17:05;22.20;69.80
22456;DHT22;11395;53.204;6.502;2022-10-19T03:19:32;22.20;69.90
22456;DHT22;11395;53.204;6.502;2022-10-19T03:21:59;22.20;69.90
22456;DHT22;11395;53.204;6.502;2022-10-19T03:24:25;22.20;69.90
22456;DHT22;11395;53.204;6.502;2022-10-19T03:26:51;22.20;69.90
22456;DHT22;11395;53.204;6.502;2022-10-19T03:29:18;22.20;70.00
22456;DHT22;11395;53.204;6.502;2022-10-19T03:31:44;22.20;69.90
22456;DHT22;11395;53.204;6.502;2022-10-19T03:34:10;22.10;69.90
22456;DHT22;11395;53.204;6.502;2022-10-19T03:36:38;22.10;70.00
22456;DHT22;11395;53.204;6.502;2022-10-19T03:39:07;22.10;70.00
22456;DHT22;11395;53.204;6.502;2022-10-19T03:41:34;22.10;70.00
22456;DHT22;11395;53.204;6.502;2022-10-19T03:44:01;22.10;70.10
22456;DHT22;11395;53.204;6.502;2022-10-19T03:46:27;22.10;70.10
22456;DHT22;11395;53.204;6.502;2022-10-19T03:48:54;22.10;70.10
22456;DHT22;11395;53.204;6.502;2022-10-19T03:51:25;22.00;70.00
22456;DHT22;11395;53.204;6.502;2022-10-19T03:54:13;22.00;70.10
22456;DHT22;11395;53.204;6.502;2022-10-19T03:56:40;22.00;70.10
22456;DHT22;11395;53.204;6.502;2022-10-19T03:59:07;22.00;70.00
22456;DHT22;11395;53.204;6.502;2022-10-19T04:01:38;22.10;70.00
22456;DHT22;11395;53.204;6.502;2022-10-19T04:04:15;22.10;70.00
22456;DHT22;11395;53.204;6.502;2022-10-19T04:06:43;22.10;70.00
22456;DHT22;11395;53.204;6.502;2022-10-19T04:09:17;22.20;70.00
22456;DHT22;11395;53.204;6.502;2022-10-19T04:11:44;22.20;70.00
22456;DHT22;11395;53.204;6.502;2022-10-19T04:14:15;22.30;69.90
22456;DHT22;11395;53.204;6.502;2022-10-19T04:16:41;22.30;69.80
22456;DHT22;11395;53.204;6.502;2022-10-19T04:19:07;22.40;69.80
22456;DHT22;11395;53.204;6.502;2022-10-19T04:21:36;22.50;70.50
22456;DHT22;11395;53.204;6.502;2022-10-19T04:24:08;22.60;69.60
22456;DHT22;11395;53.204;6.502;2022-10-19T04:26:39;22.70;69.50
22456;DHT22;11395;53.204;6.502;2022-10-19T04:29:05;22.80;69.30
22456;DHT22;11395;53.204;6.502;2022-10-19T04:31:32;22.90;69.20
22456;DHT22;11395;53.204;6.502;2022-10-19T04:33:58;23.00;69.00
22456;DHT22;11395;53.204;6.502;2022-10-19T04:36:24;23.00;68.90
22456;DHT22;11395;53.204;6.502;2022-10-19T04:38:50;23.10;68.80
22456;DHT22;11395;53.204;6.502;2022-10-19T04:41:18;23.10;68.70
22456;DHT22;11395;53.204;6.502;2022-10-19T04:43:45;23.20;68.60
22456;DHT22;11395;53.204;6.502;2022-10-19T04:46:15;23.20;68.50
22456;DHT22;11395;53.204;6.502;2022-10-19T04:48:42;23.30;68.50
22456;DHT22;11395;53.204;6.502;2022-10-19T04:51:09;23.30;68.40
22456;DHT22;11395;53.204;6.502;2022-10-19T04:53:37;23.40;68.20
22456;DHT22;11395;53.204;6.502;2022-10-19T04:56:12;23.40;68.10
22456;DHT22;11395;53.204;6.502;2022-10-19T04:58:38;23.50;68.10
22456;DHT22;11395;53.204;6.502;2022-10-19T05:01:18;23.50;67.80
22456;DHT22;11395;53.204;6.502;2022-10-19T05:03:45;23.60;67.80
22456;DHT22;11395;53.204;6.502;2022-10-19T05:06:12;23.70;68.40
22456;DHT22;11395;53.204;6.502;2022-10-19T05:08:39;23.70;67.60
22456;DHT22;11395;53.204;6.502;2022-10-19T05:11:11;23.80;67.50
22456;DHT22;11395;53.204;6.502;2022-10-19T05:13:38;23.90;67.40
22456;DHT22;11395;53.204;6.502;2022-10-19T05:16:06;24.00;67.40
22456;DHT22;11395;53.204;6.502;2022-10-19T05:18:33;24.00;67.90
22456;DHT22;11395;53.204;6.502;2022-10-19T05:21:10;24.10;67.10
22456;DHT22;11395;53.204;6.502;2022-10-19T05:23:38;24.20;66.90
22456;DHT22;11395;53.204;6.502;2022-10-19T05:28:35;24.30;66.60
22456;DHT22;11395;53.204;6.502;2022-10-19T05:31:10;24.30;66.40
22456;DHT22;11395;53.204;6.502;2022-10-19T05:33:37;24.40;66.60
22456;DHT22;11395;53.204;6.502;2022-10-19T05:38:39;24.40;66.40
22456;DHT22;11395;53.204;6.502;2022-10-19T05:41:05;24.40;66.40
22456;DHT22;11395;53.204;6.502;2022-10-19T05:43:32;24.50;66.10
22456;DHT22;11395;53.204;6.502;2022-10-19T05:46:03;24.50;66.20
22456;DHT22;11395;53.204;6.502;2022-10-19T05:48:30;24.50;66.10
22456;DHT22;11395;53.204;6.502;2022-10-19T05:50:59;24.50;66.10
22456;DHT22;11395;53.204;6.502;2022-10-19T05:53:27;24.50;65.90
22456;DHT22;11395;53.204;6.502;2022-10-19T05:55:53;24.50;65.90
22456;DHT22;11395;53.204;6.502;2022-10-19T05:58:20;24.50;65.80
22456;DHT22;11395;53.204;6.502;2022-10-19T06:00:52;24.50;65.80
22456;DHT22;11395;53.204;6.502;2022-10-19T06:03:19;24.40;65.70
22456;DHT22;11395;53.204;6.502;2022-10-19T06:05:45;24.40;65.70
22456;DHT22;11395;53.204;6.502;2022-10-19T06:08:11;24.40;65.80
22456;DHT22;11395;53.204;6.502;2022-10-19T06:10:37;24.40;65.50
22456;DHT22;11395;53.204;6.502;2022-10-19T06:13:04;24.40;65.70
22456;DHT22;11395;53.204;6.502;2022-10-19T06:15:35;24.30;65.60
22456;DHT22;11395;53.204;6.502;2022-10-19T06:18:11;24.30;65.60
22456;DHT22;11395;53.204;6.502;2022-10-19T06:20:41;24.30;65.70
22456;DHT22;11395;53.204;6.502;2022-10-19T06:23:08;24.30;65.70
22456;DHT22;11395;53.204;6.502;2022-10-19T06:25:35;24.20;65.70
22456;DHT22;11395;53.204;6.502;2022-10-19T06:28:01;24.20;65.80
22456;DHT22;11395;53.204;6.502;2022-10-19T06:30:27;24.20;65.80
22456;DHT22;11395;53.204;6.502;2022-10-19T06:32:54;24.20;65.80
22456;DHT22;11395;53.204;6.502;2022-10-19T06:35:20;24.20;66.00
22456;DHT22;11395;53.204;6.502;2022-10-19T06:37:46;24.20;66.10
22456;DHT22;11395;53.204;6.502;2022-10-19T06:40:12;24.20;66.10
22456;DHT22;11395;53.204;6.502;2022-10-19T06:42:38;24.20;66.10
22456;DHT22;11395;53.204;6.502;2022-10-19T06:45:09;24.20;66.10
22456;DHT22;11395;53.204;6.502;2022-10-19T06:47:35;24.30;66.10
22456;DHT22;11395;53.204;6.502;2022-10-19T06:50:03;24.30;66.20
22456;DHT22;11395;53.204;6.502;2022-10-19T06:52:30;24.30;66.10
22456;DHT22;11395;53.204;6.502;2022-10-19T06:54:57;24.30;66.00
22456;DHT22;11395;53.204;6.502;2022-10-19T06:57:23;24.30;65.90
22456;DHT22;11395;53.204;6.502;2022-10-19T06:59:49;24.40;66.00
22456;DHT22;11395;53.204;6.502;2022-10-19T07:02:15;24.40;66.00
22456;DHT22;11395;53.204;6.502;2022-10-19T07:04:41;24.30;65.80
22456;DHT22;11395;53.204;6.502;2022-10-19T07:07:08;24.40;65.90
22456;DHT22;11395;53.204;6.502;2022-10-19T07:09:34;24.40;65.90
22456;DHT22;11395;53.204;6.502;2022-10-19T07:12:00;24.40;65.90
22456;DHT22;11395;53.204;6.502;2022-10-19T07:14:26;24.40;65.90
22456;DHT22;11395;53.204;6.502;2022-10-19T07:16:56;24.30;65.80
22456;DHT22;11395;53.204;6.502;2022-10-19T07:19:25;24.40;65.80
22456;DHT22;11395;53.204;6.502;2022-10-19T07:21:52;24.40;65.70
22456;DHT22;11395;53.204;6.502;2022-10-19T07:24:18;24.40;65.90
22456;DHT22;11395;53.204;6.502;2022-10-19T07:26:45;24.30;65.80
22456;DHT22;11395;53.204;6.502;2022-10-19T07:29:11;24.40;65.90
22456;DHT22;11395;53.204;6.502;2022-10-19T07:31:37;24.30;66.00
22456;DHT22;11395;53.204;6.502;2022-10-19T07:34:04;24.30;65.90
22456;DHT22;11395;53.204;6.502;2022-10-19T07:36:32;24.20;65.80
22456;DHT22;11395;53.204;6.502;2022-10-19T07:39:00;24.30;65.90
22456;DHT22;11395;53.204;6.502;2022-10-19T07:41:27;24.30;66.00
22456;DHT22;11395;53.204;6.502;2022-10-19T07:43:53;24.20;66.00
22456;DHT22;11395;53.204;6.502;2022-10-19T07:46:22;24.20;66.00
22456;DHT22;11395;53.204;6.502;2022-10-19T07:48:49;24.20;66.00
22456;DHT22;11395;53.204;6.502;2022-10-19T07:51:16;24.20;65.90
22456;DHT22;11395;53.204;6.502;2022-10-19T07:53:43;24.20;66.00
22456;DHT22;11395;53.204;6.502;2022-10-19T07:56:23;24.20;66.00
22456;DHT22;11395;53.204;6.502;2022-10-19T07:58:50;24.10;66.00
22456;DHT22;11395;53.204;6.502;2022-10-19T08:01:19;24.10;66.00
22456;DHT22;11395;53.204;6.502;2022-10-19T08:03:47;24.10;66.00
22456;DHT22;11395;53.204;6.502;2022-10-19T08:06:15;24.10;66.10
22456;DHT22;11395;53.204;6.502;2022-10-19T08:08:44;24.10;66.10
22456;DHT22;11395;53.204;6.502;2022-10-19T08:11:27;24.10;66.10
22456;DHT22;11395;53.204;6.502;2022-10-19T08:13:53;24.10;66.10
22456;DHT22;11395;53.204;6.502;2022-10-19T08:16:37;24.00;66.00
22456;DHT22;11395;53.204;6.502;2022-10-19T08:19:11;24.00;66.10
22456;DHT22;11395;53.204;6.502;2022-10-19T08:21:43;24.00;66.00
22456;DHT22;11395;53.204;6.502;2022-10-19T08:24:11;24.00;66.20
22456;DHT22;11395;53.204;6.502;2022-10-19T08:26:39;24.00;66.20
22456;DHT22;11395;53.204;6.502;2022-10-19T08:29:11;24.10;66.20
22456;DHT22;11395;53.204;6.502;2022-10-19T08:31:39;24.10;66.20
22456;DHT22;11395;53.204;6.502;2022-10-19T08:34:05;24.10;66.10
22456;DHT22;11395;53.204;6.502;2022-10-19T08:36:31;24.20;66.30
22456;DHT22;11395;53.204;6.502;2022-10-19T08:39:02;24.20;66.10
22456;DHT22;11395;53.204;6.502;2022-10-19T08:47:13;24.40;66.10
22456;DHT22;11395;53.204;6.502;2022-10-19T08:49:44;24.50;65.90
22456;DHT22;11395;53.204;6.502;2022-10-19T08:55:06;24.50;65.60
22456;DHT22;11395;53.204;6.502;2022-10-19T09:00:12;24.60;65.50
22456;DHT22;11395;53.204;6.502;2022-10-19T09:08:35;24.70;65.30
22456;DHT22;11395;53.204;6.502;2022-10-19T09:11:03;24.70;65.30
22456;DHT22;11395;53.204;6.502;2022-10-19T09:13:37;24.70;65.10
22456;DHT22;11395;53.204;6.502;2022-10-19T09:16:05;24.70;65.10
22456;DHT22;11395;53.204;6.502;2022-10-19T09:18:33;24.70;65.10
22456;DHT22;11395;53.204;6.502;2022-10-19T09:23:38;24.80;65.90
22456;DHT22;11395;53.204;6.502;2022-10-19T09:26:12;24.70;65.00
22456;DHT22;11395;53.204;6.502;2022-10-19T09:28:59;24.70;65.00
22456;DHT22;11395;53.204;6.502;2022-10-19T09:31:33;24.70;65.00
22456;DHT22;11395;53.204;6.502;2022-10-19T09:34:09;24.70;64.90
22456;DHT22;11395;53.204;6.502;2022-10-19T09:36:44;24.70;64.90
22456;DHT22;11395;53.204;6.502;2022-10-19T09:39:12;24.70;64.90
22456;DHT22;11395;53.204;6.502;2022-10-19T09:42:21;24.70;65.10
22456;DHT22;11395;53.204;6.502;2022-10-19T09:44:49;24.70;65.00
22456;DHT22;11395;53.204;6.502;2022-10-19T09:47:37;24.70;65.00
22456;DHT22;11395;53.204;6.502;2022-10-19T09:50:20;24.70;65.00
22456;DHT22;11395;53.204;6.502;2022-10-19T09:52:51;24.70;64.90
22456;DHT22;11395;53.204;6.502;2022-10-19T09:55:36;24.60;64.80
22456;DHT22;11395;53.204;6.502;2022-10-19T10:00:37;24.60;65.00
22456;DHT22;11395;53.204;6.502;2022-10-19T10:03:05;24.60;65.00
22456;DHT22;11395;53.204;6.502;2022-10-19T10:05:35;24.50;65.00
22456;DHT22;11395;53.204;6.502;2022-10-19T10:08:04;24.50;65.00
22456;DHT22;11395;53.204;6.502;2022-10-19T10:10:38;24.50;64.90
22456;DHT22;11395;53.204;6.502;2022-10-19T10:13:17;24.50;64.80
22456;DHT22;11395;53.204;6.502;2022-10-19T10:15:47;24.40;64.70
22456;DHT22;11395;53.204;6.502;2022-10-19T10:18:16;24.40;65.10
22456;DHT22;11395;53.204;6.502;2022-10-19T10:20:56;24.40;65.00
22456;DHT22;11395;53.204;6.502;2022-10-19T10:23:25;24.40;65.10
22456;DHT22;11395;53.204;6.502;2022-10-19T10:25:55;24.30;65.10
22456;DHT22;11395;53.204;6.502;2022-10-19T10:28:24;24.30;65.10
22456;DHT22;11395;53.204;6.502;2022-10-19T10:31:07;24.30;65.20
22456;DHT22;11395;53.204;6.502;2022-10-19T10:33:36;24.30;65.20
22456;DHT22;11395;53.204;6.502;2022-10-19T10:36:06;24.30;65.20
22456;DHT22;11395;53.204;6.502;2022-10-19T10:38:38;24.20;64.90
22456;DHT22;11395;53.204;6.502;2022-10-19T10:41:11;24.30;65.30
22456;DHT22;11395;53.204;6.502;2022-10-19T10:43:54;24.30;65.30
22456;DHT22;11395;53.204;6.502;2022-10-19T10:46:25;24.30;65.10
22456;DHT22;11395;53.204;6.502;2022-10-19T10:48:57;24.30;65.50
22456;DHT22;11395;53.204;6.502;2022-10-19T10:51:37;24.30;65.40
22456;DHT22;11395;53.204;6.502;2022-10-19T10:57:09;24.40;65.30
22456;DHT22;11395;53.204;6.502;2022-10-19T10:59:44;24.40;65.30
22456;DHT22;11395;53.204;6.502;2022-10-19T11:08:21;24.60;65.10
22456;DHT22;11395;53.204;6.502;2022-10-19T11:10:56;24.60;65.10
22456;DHT22;11395;53.204;6.502;2022-10-19T11:16:16;24.70;64.90
22456;DHT22;11395;53.204;6.502;2022-10-19T11:18:56;24.70;64.80
22456;DHT22;11395;53.204;6.502;2022-10-19T11:21:36;24.70;64.80
22456;DHT22;11395;53.204;6.502;2022-10-19T11:24:16;24.70;64.80
22456;DHT22;11395;53.204;6.502;2022-10-19T11:35:31;24.70;64.70
22456;DHT22;11395;53.204;6.502;2022-10-19T11:38:19;24.70;64.70
22456;DHT22;11395;53.204;6.502;2022-10-19T11:49:39;24.70;64.60
22456;DHT22;11395;53.204;6.502;2022-10-19T11:52:33;24.70;64.70
22456;DHT22;11395;53.204;6.502;2022-10-19T11:58:03;24.70;64.70
22456;DHT22;11395;53.204;6.502;2022-10-19T12:00:40;24.80;64.80
22456;DHT22;11395;53.204;6.502;2022-10-19T12:03:21;24.70;64.60
22456;DHT22;11395;53.204;6.502;2022-10-19T12:13:54;24.70;64.60
22456;DHT22;11395;53.204;6.502;2022-10-19T12:16:34;24.70;64.70
22456;DHT22;11395;53.204;6.502;2022-10-19T12:19:03;24.70;64.70
22456;DHT22;11395;53.204;6.502;2022-10-19T12:21:34;24.70;64.70
22456;DHT22;11395;53.204;6.502;2022-10-19T12:24:04;24.70;64.70
22456;DHT22;11395;53.204;6.502;2022-10-19T12:26:34;24.60;64.80
22456;DHT22;11395;53.204;6.502;2022-10-19T12:29:04;24.60;64.90
22456;DHT22;11395;53.204;6.502;2022-10-19T12:31:32;24.60;64.90
22456;DHT22;11395;53.204;6.502;2022-10-19T12:36:57;24.60;64.90
22456;DHT22;11395;53.204;6.502;2022-10-19T12:39:48;24.70;65.00
22456;DHT22;11395;53.204;6.502;2022-10-19T12:42:28;24.70;65.00
22456;DHT22;11395;53.204;6.502;2022-10-19T12:47:30;24.60;64.60
22456;DHT22;11395;53.204;6.502;2022-10-19T12:49:57;24.60;64.60
22456;DHT22;11395;53.204;6.502;2022-10-19T12:52:44;24.70;64.70
22456;DHT22;11395;53.204;6.502;2022-10-19T12:58:13;24.70;64.60
22456;DHT22;11395;53.204;6.502;2022-10-19T13:00:59;24.70;64.60
22456;DHT22;11395;53.204;6.502;2022-10-19T13:03:40;24.80;64.50
22456;DHT22;11395;53.204;6.502;2022-10-19T13:06:14;24.80;64.70
22456;DHT22;11395;53.204;6.502;2022-10-19T13:08:55;24.90;64.90
22456;DHT22;11395;53.204;6.502;2022-10-19T13:11:22;24.90;64.80
22456;DHT22;11395;53.204;6.502;2022-10-19T13:22:11;25.10;64.90
22456;DHT22;11395;53.204;6.502;2022-10-19T13:25:17;25.10;64.80
22456;DHT22;11395;53.204;6.502;2022-10-19T13:27:48;25.20;64.50
22456;DHT22;11395;53.204;6.502;2022-10-19T13:38:28;25.20;64.30
22456;DHT22;11395;53.204;6.502;2022-10-19T13:41:14;25.20;64.10
22456;DHT22;11395;53.204;6.502;2022-10-19T14:05:46;25.00;64.40
22456;DHT22;11395;53.204;6.502;2022-10-19T14:11:05;25.00;64.50
22456;DHT22;11395;53.204;6.502;2022-10-19T14:13:37;25.00;65.30
22456;DHT22;11395;53.204;6.502;2022-10-19T14:16:03;25.00;64.40
22456;DHT22;11395;53.204;6.502;2022-10-19T14:18:32;25.00;64.30
22456;DHT22;11395;53.204;6.502;2022-10-19T14:21:04;25.00;64.00
22456;DHT22;11395;53.204;6.502;2022-10-19T14:23:33;25.00;64.00
22456;DHT22;11395;53.204;6.502;2022-10-19T14:26:18;25.00;64.00
22456;DHT22;11395;53.204;6.502;2022-10-19T14:28:51;25.10;64.00
22456;DHT22;11395;53.204;6.502;2022-10-19T14:31:21;25.10;63.80
22456;DHT22;11395;53.204;6.502;2022-10-19T14:33:51;25.10;63.60
22456;DHT22;11395;53.204;6.502;2022-10-19T14:36:20;25.10;63.40
22456;DHT22;11395;53.204;6.502;2022-10-19T14:38:49;25.10;63.30
22456;DHT22;11395;53.204;6.502;2022-10-19T14:41:28;25.10;63.20
22456;DHT22;11395;53.204;6.502;2022-10-19T14:43:55;25.10;63.10
22456;DHT22;11395;53.204;6.502;2022-10-19T14:46:31;25.10;63.10
22456;DHT22;11395;53.204;6.502;2022-10-19T14:49:04;25.10;63.10
22456;DHT22;11395;53.204;6.502;2022-10-19T14:51:48;25.10;63.10
22456;DHT22;11395;53.204;6.502;2022-10-19T14:54:26;25.10;63.20
22456;DHT22;11395;53.204;6.502;2022-10-19T14:56:59;25.10;63.20
22456;DHT22;11395;53.204;6.502;2022-10-19T14:59:55;25.10;63.30
22456;DHT22;11395;53.204;6.502;2022-10-19T15:02:35;25.10;63.30
22456;DHT22;11395;53.204;6.502;2022-10-19T15:05:04;25.10;63.20
22456;DHT22;11395;53.204;6.502;2022-10-19T15:07:39;25.10;63.40
22456;DHT22;11395;53.204;6.502;2022-10-19T15:10:27;25.00;63.30
22456;DHT22;11395;53.204;6.502;2022-10-19T15:13:02;25.00;63.20
22456;DHT22;11395;53.204;6.502;2022-10-19T15:15:31;25.00;63.30
22456;DHT22;11395;53.204;6.502;2022-10-19T15:20:33;24.90;63.40
22456;DHT22;11395;53.204;6.502;2022-10-19T15:23:02;24.90;63.60
22456;DHT22;11395;53.204;6.502;2022-10-19T15:25:58;24.90;63.90
22456;DHT22;11395;53.204;6.502;2022-10-19T15:28:36;24.90;64.10
22456;DHT22;11395;53.204;6.502;2022-10-19T15:31:19;24.90;64.00
22456;DHT22;11395;53.204;6.502;2022-10-19T15:33:55;25.00;64.10
22456;DHT22;11395;53.204;6.502;2022-10-19T15:36:23;25.10;64.10
22456;DHT22;11395;53.204;6.502;2022-10-19T15:39:00;25.10;64.00
22456;DHT22;11395;53.204;6.502;2022-10-19T15:41:30;25.10;63.90
22456;DHT22;11395;53.204;6.502;2022-10-19T15:44:00;25.10;63.80
22456;DHT22;11395;53.204;6.502;2022-10-19T15:46:34;25.10;63.80
22456;DHT22;11395;53.204;6.502;2022-10-19T15:52:21;25.10;63.60
22456;DHT22;11395;53.204;6.502;2022-10-19T15:54:53;25.20;63.60
22456;DHT22;11395;53.204;6.502;2022-10-19T15:57:21;25.10;63.50
22456;DHT22;11395;53.204;6.502;2022-10-19T15:59:48;25.10;63.30
22456;DHT22;11395;53.204;6.502;2022-10-19T16:02:14;25.10;63.20
22456;DHT22;11395;53.204;6.502;2022-10-19T16:04:40;25.10;63.40
22456;DHT22;11395;53.204;6.502;2022-10-19T16:07:12;25.10;63.40
22456;DHT22;11395;53.204;6.502;2022-10-19T16:09:39;25.10;63.60
22456;DHT22;11395;53.204;6.502;2022-10-19T16:12:05;25.10;64.10
22456;DHT22;11395;53.204;6.502;2022-10-19T16:14:31;25.00;64.10
22456;DHT22;11395;53.204;6.502;2022-10-19T16:16:59;25.00;63.80
22456;DHT22;11395;53.204;6.502;2022-10-19T16:19:26;25.00;64.20
22456;DHT22;11395;53.204;6.502;2022-10-19T16:21:52;24.90;64.70
22456;DHT22;11395;53.204;6.502;2022-10-19T16:24:18;24.90;64.60
22456;DHT22;11395;53.204;6.502;2022-10-19T16:26:44;24.90;64.80
22456;DHT22;11395;53.204;6.502;2022-10-19T16:29:10;24.90;64.70
22456;DHT22;11395;53.204;6.502;2022-10-19T16:31:37;24.90;64.70
22456;DHT22;11395;53.204;6.502;2022-10-19T16:34:03;24.80;64.70
22456;DHT22;11395;53.204;6.502;2022-10-19T16:36:29;24.80;64.90
22456;DHT22;11395;53.204;6.502;2022-10-19T16:38:58;24.80;64.90
22456;DHT22;11395;53.204;6.502;2022-10-19T16:41:24;24.70;64.80
22456;DHT22;11395;53.204;6.502;2022-10-19T16:43:54;24.70;64.90
22456;DHT22;11395;53.204;6.502;2022-10-19T16:46:22;24.70;65.00
22456;DHT22;11395;53.204;6.502;2022-10-19T16:48:48;24.60;64.70
22456;DHT22;11395;53.204;6.502;2022-10-19T16:53:49;24.50;64.90
22456;DHT22;11395;53.204;6.502;2022-10-19T16:56:17;24.50;65.10
22456;DHT22;11395;53.204;6.502;2022-10-19T16:58:43;24.50;65.10
22456;DHT22;11395;53.204;6.502;2022-10-19T17:01:12;24.40;65.10
22456;DHT22;11395;53.204;6.502;2022-10-19T17:03:39;24.40;65.40
22456;DHT22;11395;53.204;6.502;2022-10-19T17:06:06;24.30;65.60
22456;DHT22;11395;53.204;6.502;2022-10-19T17:08:34;24.30;66.10
22456;DHT22;11395;53.204;6.502;2022-10-19T17:11:13;24.30;66.70
22456;DHT22;11395;53.204;6.502;2022-10-19T17:13:40;24.20;66.50
22456;DHT22;11395;53.204;6.502;2022-10-19T17:16:08;24.20;66.30
22456;DHT22;11395;53.204;6.502;2022-10-19T17:18:38;24.20;66.20
22456;DHT22;11395;53.204;6.502;2022-10-19T17:21:08;24.20;66.30
22456;DHT22;11395;53.204;6.502;2022-10-19T17:23:35;24.20;66.20
22456;DHT22;11395;53.204;6.502;2022-10-19T17:26:02;24.10;66.40
22456;DHT22;11395;53.204;6.502;2022-10-19T17:28:30;24.20;66.40
22456;DHT22;11395;53.204;6.502;2022-10-19T17:31:01;24.10;66.40
22456;DHT22;11395;53.204;6.502;2022-10-19T17:33:27;24.10;66.40
22456;DHT22;11395;53.204;6.502;2022-10-19T17:35:54;24.10;66.70
22456;DHT22;11395;53.204;6.502;2022-10-19T17:38:20;24.00;66.50
22456;DHT22;11395;53.204;6.502;2022-10-19T17:40:47;24.00;66.50
22456;DHT22;11395;53.204;6.502;2022-10-19T17:43:13;24.00;66.50
22456;DHT22;11395;53.204;6.502;2022-10-19T17:45:39;24.00;66.60
22456;DHT22;11395;53.204;6.502;2022-10-19T17:48:06;23.90;66.60
22456;DHT22;11395;53.204;6.502;2022-10-19T17:50:33;23.90;66.70
22456;DHT22;11395;53.204;6.502;2022-10-19T17:53:00;23.90;66.60
22456;DHT22;11395;53.204;6.502;2022-10-19T17:55:27;23.90;66.70
22456;DHT22;11395;53.204;6.502;2022-10-19T17:57:54;23.90;66.80
22456;DHT22;11395;53.204;6.502;2022-10-19T18:00:21;23.90;66.60
22456;DHT22;11395;53.204;6.502;2022-10-19T18:02:47;23.90;66.50
22456;DHT22;11395;53.204;6.502;2022-10-19T18:05:14;24.00;66.60
22456;DHT22;11395;53.204;6.502;2022-10-19T18:07:41;24.00;66.50
22456;DHT22;11395;53.204;6.502;2022-10-19T18:10:08;24.10;66.50
22456;DHT22;11395;53.204;6.502;2022-10-19T18:12:34;24.10;66.50
22456;DHT22;11395;53.204;6.502;2022-10-19T18:15:01;24.20;66.50
22456;DHT22;11395;53.204;6.502;2022-10-19T18:17:27;24.20;66.40
22456;DHT22;11395;53.204;6.502;2022-10-19T18:19:53;24.30;66.40
22456;DHT22;11395;53.204;6.502;2022-10-19T18:22:20;24.30;66.30
22456;DHT22;11395;53.204;6.502;2022-10-19T18:24:47;24.40;66.30
22456;DHT22;11395;53.204;6.502;2022-10-19T18:27:14;24.40;66.20
22456;DHT22;11395;53.204;6.502;2022-10-19T18:29:41;24.40;66.10
22456;DHT22;11395;53.204;6.502;2022-10-19T18:32:07;24.50;66.10
22456;DHT22;11395;53.204;6.502;2022-10-19T18:34:33;24.50;66.00
22456;DHT22;11395;53.204;6.502;2022-10-19T18:36:59;24.50;66.00
22456;DHT22;11395;53.204;6.502;2022-10-19T18:39:26;24.50;65.90